createdAt,value
2023-05-24T00:01:04.033Z,99.90
2023-05-24T00:03:34.988Z,99.90
2023-05-24T00:06:07.078Z,99.90
2023-05-24T00:08:35.348Z,99.90
2023-05-24T00:11:03.640Z,99.90
2023-05-24T00:13:31.907Z,99.90
2023-05-24T00:16:00.195Z,99.90
2023-05-24T00:18:31.261Z,99.90
2023-05-24T00:20:59.793Z,99.90
2023-05-24T00:23:29.370Z,99.90
2023-05-24T00:25:57.682Z,99.90
2023-05-24T00:28:25.956Z,99.90
2023-05-24T00:30:54.228Z,99.90
2023-05-24T00:33:23.431Z,99.90
2023-05-24T00:35:56.233Z,99.90
2023-05-24T00:38:24.939Z,99.90
2023-05-24T00:40:57.405Z,99.90
2023-05-24T00:43:26.077Z,99.90
2023-05-24T00:46:14.319Z,99.90
2023-05-24T00:48:43.071Z,99.90
2023-05-24T00:51:12.741Z,99.90
2023-05-24T00:53:42.490Z,99.90
2023-05-24T00:56:14.022Z,99.90
2023-05-24T00:58:42.741Z,99.90
2023-05-24T01:01:12.111Z,99.90
2023-05-24T01:03:41.773Z,99.90
2023-05-24T01:06:10.625Z,99.90
2023-05-24T01:08:49.144Z,99.90
2023-05-24T01:11:30.155Z,99.90
2023-05-24T01:14:09.208Z,99.90
2023-05-24T01:16:46.656Z,99.90
2023-05-24T01:19:45.503Z,99.90
2023-05-24T01:22:29.639Z,99.90
2023-05-24T01:25:05.089Z,99.90
2023-05-24T01:27:37.235Z,99.90
2023-05-24T01:30:06.229Z,99.90
2023-05-24T01:32:34.800Z,99.90
2023-05-24T01:35:03.460Z,99.90
2023-05-24T01:37:31.669Z,99.90
2023-05-24T01:40:00.344Z,99.90
2023-05-24T01:42:37.640Z,99.90
2023-05-24T01:45:14.296Z,99.90
2023-05-24T01:47:54.688Z,99.90
2023-05-24T01:50:28.241Z,99.90
2023-05-24T01:52:59.015Z,99.90
2023-05-24T01:55:29.254Z,99.90
2023-05-24T01:58:02.976Z,99.90
2023-05-24T02:00:33.929Z,99.90
2023-05-24T02:03:03.856Z,99.90
2023-05-24T02:05:33.985Z,99.90
2023-05-24T02:08:07.279Z,99.90
2023-05-24T02:10:38.374Z,99.90
2023-05-24T02:13:08.552Z,99.90
2023-05-24T02:15:37.116Z,99.90
2023-05-24T02:18:08.106Z,99.90
2023-05-24T02:20:37.841Z,99.90
2023-05-24T02:23:06.285Z,99.90
2023-05-24T02:25:34.815Z,99.90
2023-05-24T02:28:03.325Z,99.90
2023-05-24T02:30:33.191Z,99.90
2023-05-24T02:33:02.200Z,99.90
2023-05-24T02:35:30.655Z,99.90
2023-05-24T02:37:58.996Z,99.90
2023-05-24T02:40:27.281Z,99.90
2023-05-24T02:42:55.573Z,99.90
2023-05-24T02:45:23.829Z,99.90
2023-05-24T02:47:53.664Z,99.90
2023-05-24T02:50:21.990Z,99.90
2023-05-24T02:52:50.205Z,99.90
2023-05-24T02:55:19.042Z,99.90
2023-05-24T02:57:48.104Z,99.90
2023-05-24T03:00:18.624Z,99.90
2023-05-24T03:02:51.064Z,99.90
2023-05-24T03:05:21.200Z,99.90
2023-05-24T03:07:49.461Z,99.90
2023-05-24T03:10:18.087Z,99.90
2023-05-24T03:12:46.368Z,99.90
2023-05-24T03:15:14.809Z,99.90
2023-05-24T03:17:43.176Z,99.90
2023-05-24T03:20:13.196Z,99.90
2023-05-24T03:22:43.247Z,99.90
2023-05-24T03:25:11.737Z,99.90
2023-05-24T03:27:40.213Z,99.90
2023-05-24T03:30:10.125Z,99.90
2023-05-24T03:32:47.331Z,99.90
2023-05-24T03:35:15.780Z,99.90
2023-05-24T03:37:45.446Z,99.90
2023-05-24T03:40:14.079Z,99.90
2023-05-24T03:42:57.375Z,99.90
2023-05-24T03:45:43.232Z,99.90
2023-05-24T03:48:11.723Z,99.90
2023-05-24T03:50:40.451Z,99.90
2023-05-24T03:53:10.199Z,99.90
2023-05-24T03:55:39.915Z,99.90
2023-05-24T03:58:08.178Z,99.90
2023-05-24T04:00:37.226Z,99.90
2023-05-24T04:03:06.831Z,99.90
2023-05-24T04:05:35.403Z,99.90
2023-05-24T04:08:04.265Z,99.90
2023-05-24T04:10:33.997Z,99.90
2023-05-24T04:13:02.312Z,99.90
2023-05-24T04:15:31.074Z,99.90
2023-05-24T04:18:00.629Z,99.90
2023-05-24T04:20:30.139Z,99.90
2023-05-24T04:22:58.577Z,99.90
2023-05-24T04:25:26.881Z,99.90
2023-05-24T04:27:57.568Z,99.90
2023-05-24T04:30:26.408Z,99.90
2023-05-24T04:32:54.656Z,99.90
2023-05-24T04:35:23.102Z,99.90
2023-05-24T04:37:51.356Z,99.90
2023-05-24T04:40:22.923Z,99.90
2023-05-24T04:42:51.615Z,99.90
2023-05-24T04:45:21.259Z,99.90
2023-05-24T04:47:49.604Z,99.90
2023-05-24T04:50:18.290Z,99.90
2023-05-24T04:52:46.986Z,99.90
2023-05-24T04:55:15.505Z,99.90
2023-05-24T04:57:43.746Z,99.90
2023-05-24T05:00:13.269Z,99.90
2023-05-24T05:02:43.062Z,99.90
2023-05-24T05:05:12.674Z,99.90
2023-05-24T05:07:40.895Z,99.90
2023-05-24T05:10:10.151Z,99.90
2023-05-24T05:12:38.771Z,99.90
2023-05-24T05:15:08.520Z,99.90
2023-05-24T05:17:36.832Z,99.90
2023-05-24T05:20:08.043Z,99.90
2023-05-24T05:22:36.387Z,99.90
2023-05-24T05:25:05.259Z,99.90
2023-05-24T05:27:33.644Z,99.90
2023-05-24T05:30:01.887Z,99.90
2023-05-24T05:32:30.329Z,99.90
2023-05-24T05:34:58.620Z,99.90
2023-05-24T05:37:28.306Z,99.90
2023-05-24T05:39:56.829Z,99.90
2023-05-24T05:42:25.185Z,99.90
2023-05-24T05:44:53.667Z,99.90
2023-05-24T05:47:21.885Z,99.90
2023-05-24T05:49:50.136Z,99.90
2023-05-24T05:52:18.355Z,99.90
2023-05-24T05:54:47.947Z,99.90
2023-05-24T05:57:16.424Z,99.90
2023-05-24T05:59:44.701Z,99.90
2023-05-24T06:02:13.008Z,99.90
2023-05-24T06:04:41.570Z,99.90
2023-05-24T06:07:09.868Z,99.90
2023-05-24T06:09:38.098Z,99.90
2023-05-24T06:12:08.275Z,99.90
2023-05-24T06:14:38.450Z,99.90
2023-05-24T06:17:06.862Z,99.90
2023-05-24T06:19:35.321Z,99.90
2023-05-24T06:22:03.584Z,99.90
2023-05-24T06:24:34.673Z,99.90
2023-05-24T06:27:05.344Z,99.90
2023-05-24T06:29:35.361Z,99.90
2023-05-24T06:32:03.813Z,99.90
2023-05-24T06:34:32.059Z,99.90
2023-05-24T06:37:00.359Z,99.90
2023-05-24T06:39:28.712Z,99.90
2023-05-24T06:41:57.580Z,99.90
2023-05-24T06:44:32.018Z,99.90
2023-05-24T06:47:02.181Z,99.90
2023-05-24T06:49:30.649Z,99.90
2023-05-24T06:51:58.934Z,99.90
2023-05-24T06:54:27.250Z,99.90
2023-05-24T06:56:55.865Z,99.90
2023-05-24T06:59:24.216Z,99.90
2023-05-24T07:01:58.376Z,99.90
2023-05-24T07:04:29.827Z,99.90
2023-05-24T07:06:58.573Z,99.90
2023-05-24T07:09:29.146Z,99.90
2023-05-24T07:11:57.440Z,99.90
2023-05-24T07:14:26.167Z,99.90
2023-05-24T07:16:57.394Z,99.90
2023-05-24T07:19:29.241Z,99.90
2023-05-24T07:21:59.080Z,99.90
2023-05-24T07:24:27.742Z,99.90
2023-05-24T07:26:56.860Z,99.90
2023-05-24T07:29:25.983Z,99.90
2023-05-24T07:31:55.865Z,99.90
2023-05-24T07:34:27.554Z,99.90
2023-05-24T07:36:56.088Z,99.90
2023-05-24T07:39:27.361Z,99.90
2023-05-24T07:41:55.641Z,99.90
2023-05-24T07:44:24.484Z,99.90
2023-05-24T07:46:53.012Z,99.90
2023-05-24T07:49:22.150Z,99.90
2023-05-24T07:51:50.493Z,99.90
2023-05-24T07:54:18.797Z,99.90
2023-05-24T07:56:48.340Z,99.90
2023-05-24T07:59:16.778Z,99.90
2023-05-24T08:01:44.997Z,99.90
2023-05-24T08:04:13.333Z,99.90
2023-05-24T08:06:41.936Z,99.90
2023-05-24T08:09:10.430Z,99.90
2023-05-24T08:11:38.755Z,99.90
2023-05-24T08:14:08.311Z,99.90
2023-05-24T08:16:36.595Z,99.90
2023-05-24T08:19:04.862Z,99.90
2023-05-24T08:21:33.857Z,99.90
2023-05-24T08:24:02.088Z,99.90
2023-05-24T08:26:30.476Z,99.90
2023-05-24T08:28:58.675Z,99.90
2023-05-24T08:31:28.324Z,99.90
2023-05-24T08:33:57.765Z,99.90
2023-05-24T08:36:26.465Z,99.90
2023-05-24T08:38:54.757Z,99.90
2023-05-24T08:41:23.049Z,99.90
2023-05-24T08:43:52.668Z,99.90
2023-05-24T08:46:21.441Z,99.90
2023-05-24T08:48:52.820Z,99.90
2023-05-24T08:51:21.594Z,99.90
2023-05-24T08:53:51.737Z,99.90
2023-05-24T08:56:20.596Z,99.90
2023-05-24T08:58:49.382Z,99.90
2023-05-24T09:01:18.418Z,99.90
2023-05-24T09:03:48.521Z,99.90
2023-05-24T09:06:20.395Z,99.90
2023-05-24T09:08:52.504Z,99.90
2023-05-24T09:11:22.874Z,99.90
2023-05-24T09:13:51.812Z,99.90
2023-05-24T09:16:20.366Z,99.90
2023-05-24T09:18:48.729Z,99.90
2023-05-24T09:21:18.852Z,99.90
2023-05-24T09:23:47.392Z,99.90
2023-05-24T09:26:15.933Z,99.90
2023-05-24T09:28:44.367Z,99.90
2023-05-24T09:31:13.765Z,99.90
2023-05-24T09:33:42.098Z,99.90
2023-05-24T09:36:11.269Z,99.90
2023-05-24T09:38:41.381Z,99.90
2023-05-24T09:41:11.011Z,99.90
2023-05-24T09:43:50.024Z,99.90
2023-05-24T09:46:19.654Z,99.90
2023-05-24T09:48:58.395Z,99.90
2023-05-24T09:51:27.130Z,99.90
2023-05-24T09:54:01.657Z,99.90
2023-05-24T09:56:31.253Z,99.90
2023-05-24T09:58:59.709Z,99.90
2023-05-24T10:01:28.375Z,99.90
2023-05-24T10:03:58.288Z,99.90
2023-05-24T10:06:26.951Z,99.90
2023-05-24T10:08:57.036Z,99.90
2023-05-24T10:11:27.684Z,99.90
2023-05-24T10:13:56.967Z,99.90
2023-05-24T10:16:25.274Z,99.90
2023-05-24T10:18:54.467Z,99.90
2023-05-24T10:21:25.899Z,99.90
2023-05-24T10:23:59.732Z,99.90
2023-05-24T10:26:33.264Z,99.90
2023-05-24T10:29:08.702Z,99.90
2023-05-24T10:31:40.383Z,99.90
2023-05-24T10:34:09.896Z,99.90
2023-05-24T10:36:40.474Z,99.90
2023-05-24T10:39:12.372Z,99.90
2023-05-24T10:41:43.388Z,99.90
2023-05-24T10:44:15.010Z,99.90
2023-05-24T10:47:19.711Z,99.90
2023-05-24T10:49:52.808Z,99.90
2023-05-24T10:52:21.438Z,99.90
2023-05-24T10:55:08.005Z,99.90
2023-05-24T11:03:04.057Z,99.90
2023-05-24T11:05:37.289Z,99.90
2023-05-24T11:08:09.556Z,99.90
2023-05-24T11:10:38.472Z,99.90
2023-05-24T11:13:10.972Z,99.90
2023-05-24T11:15:39.677Z,99.90
2023-05-24T11:18:17.706Z,99.90
2023-05-24T11:20:46.927Z,99.90
2023-05-24T11:23:16.715Z,99.90
2023-05-24T11:25:46.218Z,99.90
2023-05-24T11:28:16.261Z,99.90
2023-05-24T11:30:45.862Z,99.90
2023-05-24T11:33:20.790Z,99.90
2023-05-24T11:35:50.816Z,99.90
2023-05-24T11:38:24.148Z,99.90
2023-05-24T11:40:53.332Z,99.90
2023-05-24T11:43:23.115Z,99.90
2023-05-24T11:45:52.837Z,99.90
2023-05-24T11:48:21.335Z,99.90
2023-05-24T11:50:50.640Z,99.90
2023-05-24T11:53:21.082Z,99.90
2023-05-24T11:55:51.390Z,99.90
2023-05-24T11:58:26.438Z,99.90
2023-05-24T12:00:54.817Z,99.90
2023-05-24T12:03:23.313Z,99.90
2023-05-24T12:05:52.731Z,99.90
2023-05-24T12:08:21.390Z,99.90
2023-05-24T12:10:51.779Z,99.90
2023-05-24T12:13:24.255Z,99.90
2023-05-24T12:15:57.118Z,99.90
2023-05-24T12:18:27.277Z,99.90
2023-05-24T12:20:55.941Z,99.90
2023-05-24T12:23:27.699Z,99.90
2023-05-24T12:25:59.808Z,99.90
2023-05-24T12:28:28.643Z,99.90
2023-05-24T12:31:07.177Z,99.90
2023-05-24T12:33:35.874Z,99.90
2023-05-24T12:36:04.219Z,99.90
2023-05-24T12:38:33.124Z,99.90
2023-05-24T12:43:33.954Z,99.90
2023-05-24T12:46:02.164Z,99.90
2023-05-24T12:48:32.221Z,99.90
2023-05-24T12:51:00.603Z,99.90
2023-05-24T12:53:28.852Z,99.90
2023-05-24T12:55:57.256Z,99.90
2023-05-24T12:58:26.258Z,99.90
2023-05-24T13:00:54.709Z,99.90
2023-05-24T13:03:23.227Z,99.90
2023-05-24T13:05:52.919Z,99.90
2023-05-24T13:08:21.782Z,99.90
2023-05-24T13:10:50.926Z,99.90
2023-05-24T13:13:19.174Z,99.90
2023-05-24T13:15:47.673Z,99.90
2023-05-24T13:18:16.295Z,99.90
2023-05-24T13:20:44.866Z,99.90
2023-05-24T13:23:14.659Z,99.90
2023-05-24T13:25:42.988Z,99.90
2023-05-24T13:28:11.457Z,99.90
2023-05-24T13:30:39.815Z,99.90
2023-05-24T13:33:08.182Z,99.90
2023-05-24T13:35:36.670Z,99.90
2023-05-24T13:38:04.932Z,99.90
2023-05-24T13:40:34.630Z,99.90
2023-05-24T13:43:02.850Z,99.80
2023-05-24T13:45:33.121Z,99.90
2023-05-24T13:48:03.961Z,99.90
2023-05-24T13:50:32.480Z,99.90
2023-05-24T13:53:02.110Z,99.90
2023-05-24T13:55:30.469Z,99.90
2023-05-24T13:58:01.559Z,99.90
2023-05-24T14:00:32.251Z,99.90
2023-05-24T14:03:00.555Z,99.90
2023-05-24T14:05:30.547Z,99.90
2023-05-24T14:08:04.205Z,99.90
2023-05-24T14:10:32.663Z,99.90
2023-05-24T14:13:16.130Z,99.40
2023-05-24T14:15:50.984Z,98.70
2023-05-24T14:18:19.714Z,98.50
2023-05-24T14:20:47.888Z,98.40
2023-05-24T14:23:18.236Z,99.50
2023-05-24T14:25:47.117Z,99.90
2023-05-24T14:28:16.971Z,99.90
2023-05-24T14:30:45.604Z,99.90
2023-05-24T14:33:13.999Z,99.90
2023-05-24T14:35:42.633Z,99.10
2023-05-24T14:38:12.063Z,99.80
2023-05-24T14:40:40.942Z,99.90
2023-05-24T14:43:11.066Z,99.90
2023-05-24T14:45:42.238Z,99.90
2023-05-24T14:48:12.534Z,99.90
2023-05-24T14:50:41.857Z,99.90
2023-05-24T14:53:12.214Z,99.90
2023-05-24T14:55:42.707Z,99.90
2023-05-24T14:58:12.632Z,99.90
2023-05-24T15:00:43.045Z,99.90
2023-05-24T15:03:12.744Z,99.90
2023-05-24T15:05:42.553Z,99.90
2023-05-24T15:08:11.015Z,99.90
2023-05-24T15:10:40.262Z,99.90
2023-05-24T15:13:08.581Z,99.90
2023-05-24T15:15:36.973Z,99.90
2023-05-24T15:18:08.191Z,99.90
2023-05-24T15:20:36.729Z,99.90
2023-05-24T15:23:06.393Z,99.90
2023-05-24T15:25:34.655Z,99.90
2023-05-24T15:28:03.133Z,99.90
2023-05-24T15:30:33.972Z,99.90
2023-05-24T15:33:02.277Z,99.90
2023-05-24T15:35:32.173Z,99.90
2023-05-24T15:38:00.613Z,99.90
2023-05-24T15:40:28.834Z,99.90
2023-05-24T15:42:57.131Z,99.90
2023-05-24T15:45:25.620Z,99.90
2023-05-24T15:47:54.784Z,99.90
2023-05-24T15:50:35.986Z,99.90
2023-05-24T15:53:12.804Z,99.90
2023-05-24T15:55:41.126Z,99.90
2023-05-24T15:58:09.328Z,99.90
2023-05-24T16:00:37.565Z,99.90
2023-05-24T16:03:06.578Z,99.90
2023-05-24T16:05:34.962Z,99.90
2023-05-24T16:08:03.307Z,99.90
2023-05-24T16:10:32.953Z,99.90
2023-05-24T16:13:01.248Z,99.90
2023-05-24T16:15:30.407Z,99.90
2023-05-24T16:17:58.712Z,99.90
2023-05-24T16:20:27.100Z,99.90
2023-05-24T16:22:55.363Z,99.90
2023-05-24T16:25:23.841Z,99.90
2023-05-24T16:27:56.450Z,99.90
2023-05-24T16:30:25.600Z,99.90
2023-05-24T16:32:54.205Z,99.90
2023-05-24T16:35:22.756Z,99.90
2023-05-24T16:37:52.588Z,99.90
2023-05-24T16:40:21.280Z,99.90
2023-05-24T16:42:51.366Z,99.90
2023-05-24T16:45:21.219Z,99.90
2023-05-24T16:47:49.983Z,99.90
2023-05-24T16:50:18.815Z,99.90
2023-05-24T16:52:47.395Z,99.90
2023-05-24T16:55:16.093Z,99.90
2023-05-24T16:57:44.479Z,99.90
2023-05-24T17:00:15.266Z,99.90
2023-05-24T17:02:45.295Z,99.90
2023-05-24T17:05:13.638Z,99.90
2023-05-24T17:07:42.798Z,99.90
2023-05-24T17:10:11.434Z,99.90
2023-05-24T17:12:39.873Z,99.90
2023-05-24T17:15:08.951Z,99.90
2023-05-24T17:17:37.193Z,99.90
2023-05-24T17:20:08.077Z,99.90
2023-05-24T17:22:36.615Z,99.90
2023-05-24T17:25:05.293Z,99.90
2023-05-24T17:27:33.602Z,99.90
2023-05-24T17:30:01.823Z,99.90
2023-05-24T17:32:30.309Z,99.90
2023-05-24T17:34:58.508Z,99.90
2023-05-24T17:37:28.148Z,99.90
2023-05-24T17:39:56.477Z,99.90
2023-05-24T17:42:24.875Z,99.90
2023-05-24T17:44:53.215Z,99.90
2023-05-24T17:47:21.664Z,99.90
2023-05-24T17:49:50.046Z,99.90
2023-05-24T17:52:19.894Z,99.90
2023-05-24T17:54:49.683Z,99.90
2023-05-24T17:57:17.974Z,99.90
2023-05-24T17:59:46.323Z,99.90
2023-05-24T18:02:14.582Z,99.90
2023-05-24T18:04:43.105Z,99.90
2023-05-24T18:07:11.505Z,99.90
2023-05-24T18:09:39.794Z,99.90
2023-05-24T18:12:09.823Z,99.90
2023-05-24T18:14:38.165Z,99.90
2023-05-24T18:17:06.610Z,99.90
2023-05-24T18:19:34.956Z,99.90
2023-05-24T18:22:03.340Z,99.90
2023-05-24T18:24:31.634Z,99.90
2023-05-24T18:26:59.879Z,99.90
2023-05-24T18:29:29.456Z,99.90
2023-05-24T18:31:57.735Z,99.90
2023-05-24T18:34:26.070Z,99.90
2023-05-24T18:36:55.457Z,99.90
2023-05-24T18:39:23.772Z,99.90
2023-05-24T18:41:52.291Z,99.90
2023-05-24T18:44:20.612Z,99.90
2023-05-24T18:46:50.680Z,99.90
2023-05-24T18:49:18.941Z,99.90
2023-05-24T18:51:47.258Z,99.90
2023-05-24T18:54:15.586Z,99.90
2023-05-24T18:56:43.983Z,99.90
2023-05-24T18:59:12.760Z,99.90
2023-05-24T19:01:41.605Z,99.90
2023-05-24T19:04:11.638Z,99.90
2023-05-24T19:06:40.021Z,99.90
2023-05-24T19:09:08.203Z,99.90
2023-05-24T19:11:36.645Z,99.90
2023-05-24T19:14:04.855Z,99.90
2023-05-24T19:16:33.793Z,99.90
2023-05-24T19:19:02.262Z,99.90
2023-05-24T19:21:33.115Z,99.90
2023-05-24T19:24:01.492Z,99.90
2023-05-24T19:26:29.770Z,99.90
2023-05-24T19:28:58.336Z,99.90
2023-05-24T19:31:27.884Z,99.90
2023-05-24T19:34:00.629Z,99.90
2023-05-24T19:36:32.914Z,99.90
2023-05-24T19:39:01.319Z,99.90
2023-05-24T19:41:30.871Z,99.90
2023-05-24T19:43:59.255Z,99.90
2023-05-24T19:46:27.898Z,99.90
2023-05-24T19:48:56.222Z,99.90
2023-05-24T19:51:24.396Z,99.90
2023-05-24T19:53:54.065Z,99.90
2023-05-24T19:56:23.539Z,99.90
2023-05-24T19:58:52.187Z,99.90
2023-05-24T20:01:20.577Z,99.90
2023-05-24T20:03:49.411Z,99.90
2023-05-24T20:06:18.213Z,99.90
2023-05-24T20:08:47.853Z,99.90
2023-05-24T20:11:17.765Z,99.90
2023-05-24T20:13:46.017Z,99.90
2023-05-24T20:16:14.303Z,99.90
2023-05-24T20:18:42.750Z,99.90
2023-05-24T20:21:11.218Z,99.90
2023-05-24T20:23:39.543Z,99.90
2023-05-24T20:26:07.829Z,99.90
2023-05-24T20:28:37.641Z,99.90
2023-05-24T20:31:06.011Z,99.90
2023-05-24T20:33:38.086Z,99.90
2023-05-24T20:36:08.134Z,99.90
2023-05-24T20:38:37.374Z,99.90
2023-05-24T20:41:05.929Z,99.90
2023-05-24T20:43:34.205Z,99.90
2023-05-24T20:46:03.846Z,99.90
2023-05-24T20:48:32.170Z,99.90
2023-05-24T20:51:00.414Z,99.90
2023-05-24T20:53:28.676Z,99.90
2023-05-24T20:55:57.673Z,99.90
2023-05-24T20:58:26.027Z,99.90
2023-05-24T21:00:54.794Z,99.90
2023-05-24T21:03:24.721Z,99.90
2023-05-24T21:05:53.091Z,99.90
2023-05-24T21:08:21.410Z,99.90
2023-05-24T21:10:49.732Z,99.90
2023-05-24T21:13:20.410Z,99.90
2023-05-24T21:15:50.712Z,99.90
2023-05-24T21:18:19.196Z,99.90
2023-05-24T21:20:48.896Z,99.90
2023-05-24T21:23:17.199Z,99.90
2023-05-24T21:25:45.553Z,99.90
2023-05-24T21:28:14.160Z,99.90
2023-05-24T21:30:42.426Z,99.90
2023-05-24T21:33:10.760Z,99.90
2023-05-24T21:35:39.207Z,99.90
2023-05-24T21:38:09.089Z,99.90
2023-05-24T21:40:37.419Z,99.90
2023-05-24T21:43:05.800Z,99.90
2023-05-24T21:45:34.122Z,99.90
2023-05-24T21:48:02.447Z,99.90
2023-05-24T21:50:30.735Z,99.90
2023-05-24T21:52:58.985Z,99.90
2023-05-24T21:55:30.183Z,99.90
2023-05-24T21:57:58.514Z,99.90
2023-05-24T22:00:28.009Z,99.90
2023-05-24T22:02:56.425Z,99.90
2023-05-24T22:05:27.507Z,99.90
2023-05-24T22:07:56.188Z,99.90
2023-05-24T22:10:24.456Z,99.90
2023-05-24T22:12:54.066Z,99.90
2023-05-24T22:15:22.369Z,99.90
2023-05-24T22:17:50.764Z,99.90
2023-05-24T22:20:19.305Z,99.90
2023-05-24T22:22:53.497Z,99.90
2023-05-24T22:25:22.274Z,99.90
2023-05-24T22:27:50.978Z,99.90
2023-05-24T22:30:20.639Z,99.90
2023-05-24T22:32:49.168Z,99.90
2023-05-24T22:35:17.556Z,99.90
2023-05-24T22:37:45.997Z,99.90
2023-05-24T22:40:14.873Z,99.90
2023-05-24T22:42:43.232Z,99.90
2023-05-24T22:45:12.257Z,99.90
2023-05-24T22:47:41.919Z,99.90
2023-05-24T22:50:10.879Z,99.90
2023-05-24T22:52:42.452Z,99.90
2023-05-24T22:55:11.005Z,99.90
2023-05-24T22:57:39.808Z,99.90
2023-05-24T23:00:09.730Z,99.90
2023-05-24T23:02:38.124Z,99.90
2023-05-24T23:05:09.650Z,99.90
2023-05-24T23:07:39.914Z,99.80
2023-05-24T23:10:09.385Z,99.90
2023-05-24T23:12:37.645Z,99.70
2023-05-24T23:15:06.538Z,99.80
2023-05-24T23:17:34.871Z,99.70
2023-05-24T23:20:05.122Z,99.80
2023-05-24T23:22:37.561Z,99.80
2023-05-24T23:25:06.729Z,99.90
2023-05-24T23:27:35.059Z,99.90
2023-05-24T23:30:03.534Z,99.90
2023-05-24T23:32:31.782Z,99.90
2023-05-24T23:35:00.238Z,99.90
2023-05-24T23:37:28.747Z,99.90
2023-05-24T23:40:02.401Z,99.90
2023-05-24T23:42:30.861Z,99.90
2023-05-24T23:44:59.077Z,99.90
2023-05-24T23:47:27.351Z,99.90
2023-05-24T23:49:55.648Z,99.90
2023-05-24T23:52:25.064Z,99.90
2023-05-24T23:54:53.343Z,99.90
2023-05-24T23:57:24.966Z,99.90
2023-05-24T23:59:53.077Z,99.90
